sensor_id;sensor_type;location;lat;lon;timestamp;P1;durP1;ratioP1;P2;durP2;ratioP2
62050;SDS011;48008;51.204;6.766;2022-08-19T00:01:43;17.65;;;11.18;;
62050;SDS011;48008;51.204;6.766;2022-08-19T00:04:12;17.92;;;11.07;;
62050;SDS011;48008;51.204;6.766;2022-08-19T00:06:41;19.52;;;10.45;;
62050;SDS011;48008;51.204;6.766;2022-08-19T00:09:11;20.48;;;10.68;;
62050;SDS011;48008;51.204;6.766;2022-08-19T00:11:40;20.02;;;10.60;;
62050;SDS011;48008;51.204;6.766;2022-08-19T00:14:09;22.02;;;10.70;;
62050;SDS011;48008;51.204;6.766;2022-08-19T00:16:38;15.75;;;10.70;;
62050;SDS011;48008;51.204;6.766;2022-08-19T00:19:06;18.77;;;11.02;;
62050;SDS011;48008;51.204;6.766;2022-08-19T00:21:34;22.67;;;11.80;;
62050;SDS011;48008;51.204;6.766;2022-08-19T00:24:07;20.10;;;12.27;;
62050;SDS011;48008;51.204;6.766;2022-08-19T00:26:35;20.90;;;11.75;;
62050;SDS011;48008;51.204;6.766;2022-08-19T00:29:03;19.20;;;12.13;;
62050;SDS011;48008;51.204;6.766;2022-08-19T00:31:31;25.15;;;12.00;;
62050;SDS011;48008;51.204;6.766;2022-08-19T00:33:58;19.98;;;11.95;;
62050;SDS011;48008;51.204;6.766;2022-08-19T00:36:24;19.92;;;12.20;;
62050;SDS011;48008;51.204;6.766;2022-08-19T00:38:51;22.40;;;12.00;;
62050;SDS011;48008;51.204;6.766;2022-08-19T00:41:20;19.98;;;12.80;;
62050;SDS011;48008;51.204;6.766;2022-08-19T00:44:04;20.92;;;12.60;;
62050;SDS011;48008;51.204;6.766;2022-08-19T00:46:38;19.45;;;12.57;;
62050;SDS011;48008;51.204;6.766;2022-08-19T00:49:10;27.23;;;12.57;;
62050;SDS011;48008;51.204;6.766;2022-08-19T00:51:42;22.02;;;13.15;;
62050;SDS011;48008;51.204;6.766;2022-08-19T00:54:12;26.35;;;13.25;;
62050;SDS011;48008;51.204;6.766;2022-08-19T00:56:41;23.40;;;13.50;;
62050;SDS011;48008;51.204;6.766;2022-08-19T00:59:08;21.42;;;13.65;;
62050;SDS011;48008;51.204;6.766;2022-08-19T01:01:36;22.65;;;13.82;;
62050;SDS011;48008;51.204;6.766;2022-08-19T01:04:05;26.17;;;14.25;;
62050;SDS011;48008;51.204;6.766;2022-08-19T01:06:32;26.70;;;13.07;;
62050;SDS011;48008;51.204;6.766;2022-08-19T01:09:01;31.70;;;13.80;;
62050;SDS011;48008;51.204;6.766;2022-08-19T01:11:29;28.65;;;14.00;;
62050;SDS011;48008;51.204;6.766;2022-08-19T01:13:59;27.15;;;14.25;;
62050;SDS011;48008;51.204;6.766;2022-08-19T01:16:27;23.52;;;14.32;;
62050;SDS011;48008;51.204;6.766;2022-08-19T01:18:56;25.27;;;14.57;;
62050;SDS011;48008;51.204;6.766;2022-08-19T01:21:30;27.40;;;14.43;;
62050;SDS011;48008;51.204;6.766;2022-08-19T01:24:00;24.02;;;14.10;;
62050;SDS011;48008;51.204;6.766;2022-08-19T01:26:27;27.30;;;14.98;;
62050;SDS011;48008;51.204;6.766;2022-08-19T01:28:55;27.45;;;15.85;;
62050;SDS011;48008;51.204;6.766;2022-08-19T01:31:25;32.58;;;14.75;;
62050;SDS011;48008;51.204;6.766;2022-08-19T01:33:56;23.92;;;14.98;;
62050;SDS011;48008;51.204;6.766;2022-08-19T01:36:28;28.90;;;15.23;;
62050;SDS011;48008;51.204;6.766;2022-08-19T01:39:06;26.73;;;15.18;;
62050;SDS011;48008;51.204;6.766;2022-08-19T01:41:36;27.83;;;15.88;;
62050;SDS011;48008;51.204;6.766;2022-08-19T01:44:03;25.85;;;15.65;;
62050;SDS011;48008;51.204;6.766;2022-08-19T01:46:31;27.58;;;15.45;;
62050;SDS011;48008;51.204;6.766;2022-08-19T01:48:59;28.55;;;15.43;;
62050;SDS011;48008;51.204;6.766;2022-08-19T01:51:26;28.00;;;15.48;;
62050;SDS011;48008;51.204;6.766;2022-08-19T01:53:53;25.17;;;16.20;;
62050;SDS011;48008;51.204;6.766;2022-08-19T01:56:20;22.38;;;15.65;;
62050;SDS011;48008;51.204;6.766;2022-08-19T01:59:04;22.55;;;16.00;;
62050;SDS011;48008;51.204;6.766;2022-08-19T02:01:36;25.63;;;16.70;;
62050;SDS011;48008;51.204;6.766;2022-08-19T02:04:03;24.83;;;15.88;;
62050;SDS011;48008;51.204;6.766;2022-08-19T02:06:29;26.27;;;16.67;;
62050;SDS011;48008;51.204;6.766;2022-08-19T02:08:56;25.23;;;16.35;;
62050;SDS011;48008;51.204;6.766;2022-08-19T02:11:25;27.77;;;17.13;;
62050;SDS011;48008;51.204;6.766;2022-08-19T02:13:54;34.75;;;18.38;;
62050;SDS011;48008;51.204;6.766;2022-08-19T02:16:21;29.45;;;17.50;;
62050;SDS011;48008;51.204;6.766;2022-08-19T02:18:48;28.92;;;18.13;;
62050;SDS011;48008;51.204;6.766;2022-08-19T02:21:16;28.63;;;17.88;;
62050;SDS011;48008;51.204;6.766;2022-08-19T02:23:45;30.90;;;17.90;;
62050;SDS011;48008;51.204;6.766;2022-08-19T02:26:12;28.30;;;18.02;;
62050;SDS011;48008;51.204;6.766;2022-08-19T02:28:40;33.42;;;19.27;;
62050;SDS011;48008;51.204;6.766;2022-08-19T02:31:09;36.28;;;19.10;;
62050;SDS011;48008;51.204;6.766;2022-08-19T02:33:38;31.88;;;21.42;;
62050;SDS011;48008;51.204;6.766;2022-08-19T02:36:05;33.90;;;21.55;;
62050;SDS011;48008;51.204;6.766;2022-08-19T02:38:34;35.85;;;20.40;;
62050;SDS011;48008;51.204;6.766;2022-08-19T02:41:03;31.70;;;21.38;;
62050;SDS011;48008;51.204;6.766;2022-08-19T02:43:33;31.50;;;21.17;;
62050;SDS011;48008;51.204;6.766;2022-08-19T02:46:19;33.20;;;21.15;;
62050;SDS011;48008;51.204;6.766;2022-08-19T02:48:48;42.15;;;21.50;;
62050;SDS011;48008;51.204;6.766;2022-08-19T02:51:18;35.28;;;22.15;;
62050;SDS011;48008;51.204;6.766;2022-08-19T02:53:48;37.38;;;21.73;;
62050;SDS011;48008;51.204;6.766;2022-08-19T02:56:15;36.85;;;21.63;;
62050;SDS011;48008;51.204;6.766;2022-08-19T02:58:41;32.80;;;21.55;;
62050;SDS011;48008;51.204;6.766;2022-08-19T03:01:10;35.15;;;21.70;;
62050;SDS011;48008;51.204;6.766;2022-08-19T03:03:37;37.65;;;21.70;;
62050;SDS011;48008;51.204;6.766;2022-08-19T03:06:06;41.72;;;21.85;;
62050;SDS011;48008;51.204;6.766;2022-08-19T03:08:40;35.97;;;22.27;;
62050;SDS011;48008;51.204;6.766;2022-08-19T03:11:13;41.47;;;23.42;;
62050;SDS011;48008;51.204;6.766;2022-08-19T03:13:41;42.45;;;27.20;;
62050;SDS011;48008;51.204;6.766;2022-08-19T03:16:09;41.70;;;24.55;;
62050;SDS011;48008;51.204;6.766;2022-08-19T03:18:37;38.13;;;23.83;;
62050;SDS011;48008;51.204;6.766;2022-08-19T03:21:05;36.33;;;24.02;;
62050;SDS011;48008;51.204;6.766;2022-08-19T03:23:32;47.85;;;23.10;;
62050;SDS011;48008;51.204;6.766;2022-08-19T03:26:03;36.03;;;23.33;;
62050;SDS011;48008;51.204;6.766;2022-08-19T03:28:31;41.13;;;24.70;;
62050;SDS011;48008;51.204;6.766;2022-08-19T03:31:01;37.65;;;24.50;;
62050;SDS011;48008;51.204;6.766;2022-08-19T03:33:30;45.80;;;25.33;;
62050;SDS011;48008;51.204;6.766;2022-08-19T03:36:07;41.75;;;27.13;;
62050;SDS011;48008;51.204;6.766;2022-08-19T03:38:39;43.17;;;25.85;;
62050;SDS011;48008;51.204;6.766;2022-08-19T03:41:10;48.63;;;28.48;;
62050;SDS011;48008;51.204;6.766;2022-08-19T03:43:39;41.92;;;26.63;;
62050;SDS011;48008;51.204;6.766;2022-08-19T03:46:08;43.35;;;26.55;;
62050;SDS011;48008;51.204;6.766;2022-08-19T03:48:38;49.03;;;28.42;;
62050;SDS011;48008;51.204;6.766;2022-08-19T03:51:06;49.10;;;28.77;;
62050;SDS011;48008;51.204;6.766;2022-08-19T03:53:34;48.72;;;28.85;;
62050;SDS011;48008;51.204;6.766;2022-08-19T03:56:01;57.45;;;32.42;;
62050;SDS011;48008;51.204;6.766;2022-08-19T03:58:29;53.50;;;31.45;;
62050;SDS011;48008;51.204;6.766;2022-08-19T04:00:56;56.55;;;32.47;;
62050;SDS011;48008;51.204;6.766;2022-08-19T04:03:24;53.92;;;32.60;;
62050;SDS011;48008;51.204;6.766;2022-08-19T04:05:53;57.15;;;33.55;;
62050;SDS011;48008;51.204;6.766;2022-08-19T04:08:20;59.53;;;32.75;;
62050;SDS011;48008;51.204;6.766;2022-08-19T04:10:47;62.10;;;32.63;;
62050;SDS011;48008;51.204;6.766;2022-08-19T04:13:15;56.97;;;31.75;;
62050;SDS011;48008;51.204;6.766;2022-08-19T04:15:43;61.60;;;33.47;;
62050;SDS011;48008;51.204;6.766;2022-08-19T04:18:12;67.10;;;35.28;;
62050;SDS011;48008;51.204;6.766;2022-08-19T04:20:42;67.90;;;37.33;;
62050;SDS011;48008;51.204;6.766;2022-08-19T04:23:10;73.07;;;36.47;;
62050;SDS011;48008;51.204;6.766;2022-08-19T04:25:39;69.03;;;36.05;;
62050;SDS011;48008;51.204;6.766;2022-08-19T04:28:10;58.58;;;35.25;;
62050;SDS011;48008;51.204;6.766;2022-08-19T04:30:40;63.40;;;35.53;;
62050;SDS011;48008;51.204;6.766;2022-08-19T04:35:39;68.35;;;36.58;;
62050;SDS011;48008;51.204;6.766;2022-08-19T04:38:08;59.30;;;35.63;;
62050;SDS011;48008;51.204;6.766;2022-08-19T04:40:40;69.32;;;35.78;;
62050;SDS011;48008;51.204;6.766;2022-08-19T04:43:28;67.15;;;36.20;;
62050;SDS011;48008;51.204;6.766;2022-08-19T04:45:55;68.57;;;38.20;;
62050;SDS011;48008;51.204;6.766;2022-08-19T04:48:22;62.38;;;38.17;;
62050;SDS011;48008;51.204;6.766;2022-08-19T04:50:54;73.85;;;38.83;;
62050;SDS011;48008;51.204;6.766;2022-08-19T04:53:25;69.88;;;38.40;;
62050;SDS011;48008;51.204;6.766;2022-08-19T04:55:55;72.65;;;41.42;;
62050;SDS011;48008;51.204;6.766;2022-08-19T04:58:23;64.88;;;41.42;;
62050;SDS011;48008;51.204;6.766;2022-08-19T05:00:51;76.47;;;44.72;;
62050;SDS011;48008;51.204;6.766;2022-08-19T05:03:19;68.20;;;42.78;;
62050;SDS011;48008;51.204;6.766;2022-08-19T05:05:47;72.68;;;44.78;;
62050;SDS011;48008;51.204;6.766;2022-08-19T05:08:16;76.88;;;45.10;;
62050;SDS011;48008;51.204;6.766;2022-08-19T05:10:46;74.67;;;45.33;;
62050;SDS011;48008;51.204;6.766;2022-08-19T05:13:15;77.57;;;46.05;;
62050;SDS011;48008;51.204;6.766;2022-08-19T05:15:53;82.93;;;47.28;;
62050;SDS011;48008;51.204;6.766;2022-08-19T05:18:22;77.63;;;47.65;;
62050;SDS011;48008;51.204;6.766;2022-08-19T05:21:10;77.30;;;47.60;;
62050;SDS011;48008;51.204;6.766;2022-08-19T05:23:58;85.40;;;49.03;;
62050;SDS011;48008;51.204;6.766;2022-08-19T05:26:25;79.50;;;50.10;;
62050;SDS011;48008;51.204;6.766;2022-08-19T05:28:54;82.55;;;50.35;;
62050;SDS011;48008;51.204;6.766;2022-08-19T05:31:21;94.60;;;51.75;;
62050;SDS011;48008;51.204;6.766;2022-08-19T05:33:48;86.25;;;50.95;;
62050;SDS011;48008;51.204;6.766;2022-08-19T05:36:15;93.30;;;52.75;;
62050;SDS011;48008;51.204;6.766;2022-08-19T05:38:42;91.10;;;51.65;;
62050;SDS011;48008;51.204;6.766;2022-08-19T05:41:09;95.68;;;52.50;;
62050;SDS011;48008;51.204;6.766;2022-08-19T05:43:37;87.63;;;49.88;;
62050;SDS011;48008;51.204;6.766;2022-08-19T05:46:04;87.63;;;51.00;;
62050;SDS011;48008;51.204;6.766;2022-08-19T05:48:33;83.90;;;49.72;;
62050;SDS011;48008;51.204;6.766;2022-08-19T05:51:07;87.07;;;51.20;;
62050;SDS011;48008;51.204;6.766;2022-08-19T05:53:34;84.72;;;50.45;;
62050;SDS011;48008;51.204;6.766;2022-08-19T05:56:06;83.70;;;49.38;;
62050;SDS011;48008;51.204;6.766;2022-08-19T05:58:34;93.38;;;52.33;;
62050;SDS011;48008;51.204;6.766;2022-08-19T06:01:03;91.00;;;52.67;;
62050;SDS011;48008;51.204;6.766;2022-08-19T06:03:32;92.00;;;52.20;;
62050;SDS011;48008;51.204;6.766;2022-08-19T06:05:59;85.10;;;51.25;;
62050;SDS011;48008;51.204;6.766;2022-08-19T06:08:26;88.07;;;51.92;;
62050;SDS011;48008;51.204;6.766;2022-08-19T06:10:53;91.95;;;52.55;;
62050;SDS011;48008;51.204;6.766;2022-08-19T06:13:21;93.63;;;52.30;;
62050;SDS011;48008;51.204;6.766;2022-08-19T06:15:49;99.35;;;52.47;;
62050;SDS011;48008;51.204;6.766;2022-08-19T06:18:16;94.00;;;52.60;;
62050;SDS011;48008;51.204;6.766;2022-08-19T06:20:43;88.85;;;51.90;;
62050;SDS011;48008;51.204;6.766;2022-08-19T06:23:22;92.05;;;51.38;;
62050;SDS011;48008;51.204;6.766;2022-08-19T06:25:49;94.85;;;51.95;;
62050;SDS011;48008;51.204;6.766;2022-08-19T06:28:16;87.57;;;51.63;;
62050;SDS011;48008;51.204;6.766;2022-08-19T06:30:44;85.13;;;52.85;;
62050;SDS011;48008;51.204;6.766;2022-08-19T06:33:10;93.43;;;54.97;;
62050;SDS011;48008;51.204;6.766;2022-08-19T06:35:39;88.00;;;53.13;;
62050;SDS011;48008;51.204;6.766;2022-08-19T06:38:07;94.72;;;52.63;;
62050;SDS011;48008;51.204;6.766;2022-08-19T06:40:35;101.10;;;53.65;;
62050;SDS011;48008;51.204;6.766;2022-08-19T06:43:04;81.68;;;51.42;;
62050;SDS011;48008;51.204;6.766;2022-08-19T06:45:31;87.93;;;50.58;;
62050;SDS011;48008;51.204;6.766;2022-08-19T06:47:57;83.93;;;50.63;;
62050;SDS011;48008;51.204;6.766;2022-08-19T06:50:24;84.35;;;51.10;;
62050;SDS011;48008;51.204;6.766;2022-08-19T06:52:51;85.88;;;51.08;;
62050;SDS011;48008;51.204;6.766;2022-08-19T06:55:18;91.68;;;50.65;;
62050;SDS011;48008;51.204;6.766;2022-08-19T06:57:45;85.72;;;49.97;;
62050;SDS011;48008;51.204;6.766;2022-08-19T07:00:12;87.15;;;49.88;;
62050;SDS011;48008;51.204;6.766;2022-08-19T07:02:41;92.60;;;50.25;;
62050;SDS011;48008;51.204;6.766;2022-08-19T07:05:09;83.65;;;49.40;;
62050;SDS011;48008;51.204;6.766;2022-08-19T07:07:36;86.07;;;50.22;;
62050;SDS011;48008;51.204;6.766;2022-08-19T07:10:03;82.47;;;50.95;;
62050;SDS011;48008;51.204;6.766;2022-08-19T07:12:32;99.22;;;50.80;;
62050;SDS011;48008;51.204;6.766;2022-08-19T07:15:00;95.60;;;48.70;;
62050;SDS011;48008;51.204;6.766;2022-08-19T07:17:27;83.28;;;48.65;;
62050;SDS011;48008;51.204;6.766;2022-08-19T07:19:53;84.18;;;48.08;;
62050;SDS011;48008;51.204;6.766;2022-08-19T07:22:21;88.25;;;47.72;;
62050;SDS011;48008;51.204;6.766;2022-08-19T07:24:50;80.93;;;46.78;;
62050;SDS011;48008;51.204;6.766;2022-08-19T07:27:19;72.47;;;43.38;;
62050;SDS011;48008;51.204;6.766;2022-08-19T07:29:46;80.72;;;41.85;;
62050;SDS011;48008;51.204;6.766;2022-08-19T07:32:13;74.45;;;39.22;;
62050;SDS011;48008;51.204;6.766;2022-08-19T07:34:40;72.00;;;41.65;;
62050;SDS011;48008;51.204;6.766;2022-08-19T07:37:07;78.03;;;41.00;;
62050;SDS011;48008;51.204;6.766;2022-08-19T07:39:35;71.28;;;37.53;;
62050;SDS011;48008;51.204;6.766;2022-08-19T07:42:05;60.92;;;35.05;;
62050;SDS011;48008;51.204;6.766;2022-08-19T07:44:34;57.42;;;32.95;;
62050;SDS011;48008;51.204;6.766;2022-08-19T07:47:02;56.15;;;30.60;;
62050;SDS011;48008;51.204;6.766;2022-08-19T07:49:30;56.92;;;29.40;;
62050;SDS011;48008;51.204;6.766;2022-08-19T07:51:59;57.65;;;31.88;;
62050;SDS011;48008;51.204;6.766;2022-08-19T07:54:30;50.47;;;29.02;;
62050;SDS011;48008;51.204;6.766;2022-08-19T07:59:27;55.28;;;30.05;;
62050;SDS011;48008;51.204;6.766;2022-08-19T08:01:55;53.28;;;31.17;;
62050;SDS011;48008;51.204;6.766;2022-08-19T08:04:23;53.97;;;29.55;;
62050;SDS011;48008;51.204;6.766;2022-08-19T08:07:09;63.20;;;35.75;;
62050;SDS011;48008;51.204;6.766;2022-08-19T08:09:56;70.43;;;36.03;;
62050;SDS011;48008;51.204;6.766;2022-08-19T08:12:24;66.68;;;36.85;;
62050;SDS011;48008;51.204;6.766;2022-08-19T08:15:00;71.07;;;37.15;;
62050;SDS011;48008;51.204;6.766;2022-08-19T08:17:31;74.90;;;39.22;;
62050;SDS011;48008;51.204;6.766;2022-08-19T08:19:58;78.30;;;43.55;;
62050;SDS011;48008;51.204;6.766;2022-08-19T08:22:25;85.38;;;44.30;;
62050;SDS011;48008;51.204;6.766;2022-08-19T08:25:14;83.30;;;43.80;;
62050;SDS011;48008;51.204;6.766;2022-08-19T08:27:44;86.28;;;42.90;;
62050;SDS011;48008;51.204;6.766;2022-08-19T08:30:14;84.95;;;46.35;;
62050;SDS011;48008;51.204;6.766;2022-08-19T08:32:44;89.05;;;46.92;;
62050;SDS011;48008;51.204;6.766;2022-08-19T08:35:14;95.65;;;47.80;;
62050;SDS011;48008;51.204;6.766;2022-08-19T08:37:43;85.65;;;47.38;;
62050;SDS011;48008;51.204;6.766;2022-08-19T08:42:52;89.03;;;45.67;;
62050;SDS011;48008;51.204;6.766;2022-08-19T08:45:32;88.93;;;47.05;;
62050;SDS011;48008;51.204;6.766;2022-08-19T08:48:04;95.07;;;48.38;;
62050;SDS011;48008;51.204;6.766;2022-08-19T08:50:42;89.28;;;45.83;;
62050;SDS011;48008;51.204;6.766;2022-08-19T08:53:11;69.82;;;41.33;;
62050;SDS011;48008;51.204;6.766;2022-08-19T08:55:40;78.90;;;43.17;;
62050;SDS011;48008;51.204;6.766;2022-08-19T08:58:17;75.30;;;42.75;;
62050;SDS011;48008;51.204;6.766;2022-08-19T09:00:51;74.57;;;41.17;;
62050;SDS011;48008;51.204;6.766;2022-08-19T09:03:20;70.55;;;38.53;;
62050;SDS011;48008;51.204;6.766;2022-08-19T09:08:26;50.53;;;28.50;;
62050;SDS011;48008;51.204;6.766;2022-08-19T09:11:19;54.83;;;31.77;;
62050;SDS011;48008;51.204;6.766;2022-08-19T09:14:36;58.53;;;33.35;;
62050;SDS011;48008;51.204;6.766;2022-08-19T09:17:05;51.85;;;28.33;;
62050;SDS011;48008;51.204;6.766;2022-08-19T09:19:35;46.13;;;26.35;;
62050;SDS011;48008;51.204;6.766;2022-08-19T09:22:14;39.45;;;24.08;;
62050;SDS011;48008;51.204;6.766;2022-08-19T09:24:42;43.83;;;25.13;;
62050;SDS011;48008;51.204;6.766;2022-08-19T09:27:09;46.05;;;27.92;;
62050;SDS011;48008;51.204;6.766;2022-08-19T09:29:36;63.28;;;28.65;;
62050;SDS011;48008;51.204;6.766;2022-08-19T09:32:02;50.80;;;27.17;;
62050;SDS011;48008;51.204;6.766;2022-08-19T09:34:31;48.70;;;27.05;;
62050;SDS011;48008;51.204;6.766;2022-08-19T09:36:58;41.42;;;24.52;;
62050;SDS011;48008;51.204;6.766;2022-08-19T09:39:26;44.60;;;25.75;;
62050;SDS011;48008;51.204;6.766;2022-08-19T09:41:53;38.05;;;23.30;;
62050;SDS011;48008;51.204;6.766;2022-08-19T09:44:19;41.55;;;25.50;;
62050;SDS011;48008;51.204;6.766;2022-08-19T09:46:46;44.83;;;24.02;;
62050;SDS011;48008;51.204;6.766;2022-08-19T09:49:13;43.60;;;25.48;;
62050;SDS011;48008;51.204;6.766;2022-08-19T09:51:40;42.22;;;23.88;;
62050;SDS011;48008;51.204;6.766;2022-08-19T09:54:07;38.85;;;23.27;;
62050;SDS011;48008;51.204;6.766;2022-08-19T09:56:34;40.92;;;22.25;;
62050;SDS011;48008;51.204;6.766;2022-08-19T09:59:02;36.47;;;22.98;;
62050;SDS011;48008;51.204;6.766;2022-08-19T10:01:30;38.28;;;22.65;;
62050;SDS011;48008;51.204;6.766;2022-08-19T10:03:59;35.10;;;21.35;;
62050;SDS011;48008;51.204;6.766;2022-08-19T10:06:29;33.88;;;20.20;;
62050;SDS011;48008;51.204;6.766;2022-08-19T10:08:59;36.90;;;20.83;;
62050;SDS011;48008;51.204;6.766;2022-08-19T10:11:26;32.25;;;21.05;;
62050;SDS011;48008;51.204;6.766;2022-08-19T10:13:54;37.47;;;21.58;;
62050;SDS011;48008;51.204;6.766;2022-08-19T10:16:21;36.42;;;20.33;;
62050;SDS011;48008;51.204;6.766;2022-08-19T10:18:50;39.13;;;20.90;;
62050;SDS011;48008;51.204;6.766;2022-08-19T10:21:19;32.83;;;20.17;;
62050;SDS011;48008;51.204;6.766;2022-08-19T10:23:50;31.95;;;18.10;;
62050;SDS011;48008;51.204;6.766;2022-08-19T10:26:19;33.45;;;19.67;;
62050;SDS011;48008;51.204;6.766;2022-08-19T10:28:48;34.10;;;20.55;;
62050;SDS011;48008;51.204;6.766;2022-08-19T10:31:17;31.65;;;18.08;;
62050;SDS011;48008;51.204;6.766;2022-08-19T10:33:46;29.15;;;17.40;;
62050;SDS011;48008;51.204;6.766;2022-08-19T10:36:16;29.25;;;16.60;;
62050;SDS011;48008;51.204;6.766;2022-08-19T10:41:17;27.70;;;16.20;;
62050;SDS011;48008;51.204;6.766;2022-08-19T10:43:46;28.80;;;14.40;;
62050;SDS011;48008;51.204;6.766;2022-08-19T10:46:14;22.40;;;13.50;;
62050;SDS011;48008;51.204;6.766;2022-08-19T10:48:42;29.27;;;13.98;;
62050;SDS011;48008;51.204;6.766;2022-08-19T10:51:10;32.75;;;14.75;;
62050;SDS011;48008;51.204;6.766;2022-08-19T10:53:58;27.33;;;15.02;;
62050;SDS011;48008;51.204;6.766;2022-08-19T10:56:26;31.83;;;14.95;;
62050;SDS011;48008;51.204;6.766;2022-08-19T10:59:13;26.90;;;14.55;;
62050;SDS011;48008;51.204;6.766;2022-08-19T11:01:42;28.30;;;15.68;;
62050;SDS011;48008;51.204;6.766;2022-08-19T11:04:11;22.98;;;13.70;;
62050;SDS011;48008;51.204;6.766;2022-08-19T11:06:40;33.67;;;15.70;;
62050;SDS011;48008;51.204;6.766;2022-08-19T11:09:09;26.98;;;16.48;;
62050;SDS011;48008;51.204;6.766;2022-08-19T11:11:37;34.08;;;16.88;;
62050;SDS011;48008;51.204;6.766;2022-08-19T11:14:08;27.75;;;16.17;;
62050;SDS011;48008;51.204;6.766;2022-08-19T11:16:37;24.95;;;13.93;;
62050;SDS011;48008;51.204;6.766;2022-08-19T11:19:06;25.33;;;14.63;;
62050;SDS011;48008;51.204;6.766;2022-08-19T11:21:35;26.48;;;14.52;;
62050;SDS011;48008;51.204;6.766;2022-08-19T11:24:06;33.08;;;17.63;;
62050;SDS011;48008;51.204;6.766;2022-08-19T11:26:35;26.48;;;17.15;;
62050;SDS011;48008;51.204;6.766;2022-08-19T11:29:04;32.17;;;15.10;;
62050;SDS011;48008;51.204;6.766;2022-08-19T11:31:37;26.80;;;15.85;;
62050;SDS011;48008;51.204;6.766;2022-08-19T11:34:07;27.73;;;14.75;;
62050;SDS011;48008;51.204;6.766;2022-08-19T11:36:37;25.85;;;14.25;;
62050;SDS011;48008;51.204;6.766;2022-08-19T11:39:11;23.80;;;13.23;;
62050;SDS011;48008;51.204;6.766;2022-08-19T11:41:40;27.20;;;10.55;;
62050;SDS011;48008;51.204;6.766;2022-08-19T11:44:07;21.85;;;11.32;;
62050;SDS011;48008;51.204;6.766;2022-08-19T11:46:35;21.30;;;11.10;;
62050;SDS011;48008;51.204;6.766;2022-08-19T11:49:03;25.45;;;11.98;;
62050;SDS011;48008;51.204;6.766;2022-08-19T11:51:34;21.23;;;10.45;;
62050;SDS011;48008;51.204;6.766;2022-08-19T11:54:01;21.45;;;10.40;;
62050;SDS011;48008;51.204;6.766;2022-08-19T11:56:28;23.02;;;12.07;;
62050;SDS011;48008;51.204;6.766;2022-08-19T11:58:55;24.58;;;12.85;;
62050;SDS011;48008;51.204;6.766;2022-08-19T12:01:23;21.67;;;11.10;;
62050;SDS011;48008;51.204;6.766;2022-08-19T12:03:52;20.90;;;11.48;;
62050;SDS011;48008;51.204;6.766;2022-08-19T12:06:21;26.67;;;11.45;;
62050;SDS011;48008;51.204;6.766;2022-08-19T12:11:18;18.48;;;10.23;;
62050;SDS011;48008;51.204;6.766;2022-08-19T12:13:45;20.20;;;11.35;;
62050;SDS011;48008;51.204;6.766;2022-08-19T12:16:13;21.08;;;11.30;;
62050;SDS011;48008;51.204;6.766;2022-08-19T12:18:43;23.58;;;11.82;;
62050;SDS011;48008;51.204;6.766;2022-08-19T12:21:13;22.38;;;10.38;;
62050;SDS011;48008;51.204;6.766;2022-08-19T12:23:41;18.00;;;9.88;;
62050;SDS011;48008;51.204;6.766;2022-08-19T12:26:09;22.55;;;10.15;;
62050;SDS011;48008;51.204;6.766;2022-08-19T12:28:37;16.98;;;9.93;;
62050;SDS011;48008;51.204;6.766;2022-08-19T12:31:05;16.30;;;9.75;;
62050;SDS011;48008;51.204;6.766;2022-08-19T12:33:32;15.82;;;8.48;;
62050;SDS011;48008;51.204;6.766;2022-08-19T12:36:00;19.63;;;10.45;;
62050;SDS011;48008;51.204;6.766;2022-08-19T12:38:30;20.27;;;10.77;;
62050;SDS011;48008;51.204;6.766;2022-08-19T12:40:58;16.35;;;9.18;;
62050;SDS011;48008;51.204;6.766;2022-08-19T12:43:25;18.92;;;9.35;;
62050;SDS011;48008;51.204;6.766;2022-08-19T12:45:53;17.17;;;9.60;;
62050;SDS011;48008;51.204;6.766;2022-08-19T12:48:19;20.65;;;9.05;;
62050;SDS011;48008;51.204;6.766;2022-08-19T12:50:46;17.05;;;9.55;;
62050;SDS011;48008;51.204;6.766;2022-08-19T12:53:13;16.80;;;8.70;;
62050;SDS011;48008;51.204;6.766;2022-08-19T12:55:41;19.60;;;9.80;;
62050;SDS011;48008;51.204;6.766;2022-08-19T12:58:09;20.05;;;8.52;;
62050;SDS011;48008;51.204;6.766;2022-08-19T13:00:36;19.55;;;9.00;;
62050;SDS011;48008;51.204;6.766;2022-08-19T13:03:03;18.80;;;9.75;;
62050;SDS011;48008;51.204;6.766;2022-08-19T13:05:30;19.17;;;8.88;;
62050;SDS011;48008;51.204;6.766;2022-08-19T13:07:59;20.65;;;8.57;;
62050;SDS011;48008;51.204;6.766;2022-08-19T13:10:28;19.45;;;8.80;;
62050;SDS011;48008;51.204;6.766;2022-08-19T13:13:02;21.83;;;7.60;;
62050;SDS011;48008;51.204;6.766;2022-08-19T13:15:33;20.70;;;8.63;;
62050;SDS011;48008;51.204;6.766;2022-08-19T13:18:02;18.30;;;8.55;;
62050;SDS011;48008;51.204;6.766;2022-08-19T13:20:29;17.08;;;7.85;;
62050;SDS011;48008;51.204;6.766;2022-08-19T13:22:56;14.07;;;7.65;;
62050;SDS011;48008;51.204;6.766;2022-08-19T13:25:23;14.55;;;7.70;;
62050;SDS011;48008;51.204;6.766;2022-08-19T13:27:51;15.18;;;7.03;;
62050;SDS011;48008;51.204;6.766;2022-08-19T13:30:19;16.00;;;6.65;;
62050;SDS011;48008;51.204;6.766;2022-08-19T13:33:07;13.75;;;6.63;;
62050;SDS011;48008;51.204;6.766;2022-08-19T13:35:38;13.75;;;5.78;;
62050;SDS011;48008;51.204;6.766;2022-08-19T13:38:06;12.52;;;5.60;;
62050;SDS011;48008;51.204;6.766;2022-08-19T13:40:34;20.75;;;6.78;;
62050;SDS011;48008;51.204;6.766;2022-08-19T13:43:02;14.15;;;7.05;;
62050;SDS011;48008;51.204;6.766;2022-08-19T13:45:32;13.68;;;7.50;;
62050;SDS011;48008;51.204;6.766;2022-08-19T13:48:00;16.20;;;6.97;;
62050;SDS011;48008;51.204;6.766;2022-08-19T13:50:33;16.55;;;7.00;;
62050;SDS011;48008;51.204;6.766;2022-08-19T13:53:01;15.35;;;7.00;;
62050;SDS011;48008;51.204;6.766;2022-08-19T13:55:28;12.77;;;6.70;;
62050;SDS011;48008;51.204;6.766;2022-08-19T13:57:56;14.30;;;6.55;;
62050;SDS011;48008;51.204;6.766;2022-08-19T14:00:30;17.38;;;6.95;;
62050;SDS011;48008;51.204;6.766;2022-08-19T14:02:59;18.00;;;6.80;;
62050;SDS011;48008;51.204;6.766;2022-08-19T14:05:26;15.35;;;6.00;;
62050;SDS011;48008;51.204;6.766;2022-08-19T14:07:54;14.40;;;6.57;;
62050;SDS011;48008;51.204;6.766;2022-08-19T14:10:22;12.07;;;6.18;;
62050;SDS011;48008;51.204;6.766;2022-08-19T14:12:51;19.75;;;6.07;;
62050;SDS011;48008;51.204;6.766;2022-08-19T14:15:21;14.32;;;6.85;;
62050;SDS011;48008;51.204;6.766;2022-08-19T14:17:49;16.50;;;5.00;;
62050;SDS011;48008;51.204;6.766;2022-08-19T14:20:17;14.07;;;4.55;;
62050;SDS011;48008;51.204;6.766;2022-08-19T14:22:44;18.58;;;5.10;;
62050;SDS011;48008;51.204;6.766;2022-08-19T14:25:16;11.95;;;4.93;;
62050;SDS011;48008;51.204;6.766;2022-08-19T14:27:46;13.90;;;5.15;;
62050;SDS011;48008;51.204;6.766;2022-08-19T14:30:15;12.02;;;4.97;;
62050;SDS011;48008;51.204;6.766;2022-08-19T14:32:45;17.35;;;5.05;;
62050;SDS011;48008;51.204;6.766;2022-08-19T14:35:13;15.20;;;5.13;;
62050;SDS011;48008;51.204;6.766;2022-08-19T14:37:41;16.40;;;4.88;;
62050;SDS011;48008;51.204;6.766;2022-08-19T14:40:09;12.52;;;4.88;;
62050;SDS011;48008;51.204;6.766;2022-08-19T14:42:38;12.88;;;4.68;;
62050;SDS011;48008;51.204;6.766;2022-08-19T14:45:05;12.38;;;4.70;;
62050;SDS011;48008;51.204;6.766;2022-08-19T14:47:32;12.60;;;4.60;;
62050;SDS011;48008;51.204;6.766;2022-08-19T14:49:59;16.23;;;5.05;;
62050;SDS011;48008;51.204;6.766;2022-08-19T14:52:26;18.92;;;4.90;;